sensor_id;sensor_type;location;lat;lon;timestamp;P1;durP1;ratioP1;P2;durP2;ratioP2
29168;SDS011;16219;42.864;23.360;2022-12-18T00:02:20;34.22;;;16.80;;
29168;SDS011;16219;42.864;23.360;2022-12-18T00:04:47;18.02;;;12.48;;
29168;SDS011;16219;42.864;23.360;2022-12-18T00:07:14;36.05;;;15.23;;
29168;SDS011;16219;42.864;23.360;2022-12-18T00:09:41;36.28;;;13.00;;
29168;SDS011;16219;42.864;23.360;2022-12-18T00:12:08;15.57;;;11.98;;
29168;SDS011;16219;42.864;23.360;2022-12-18T00:14:35;15.13;;;11.00;;
29168;SDS011;16219;42.864;23.360;2022-12-18T00:17:06;4.28;;;3.15;;
29168;SDS011;16219;42.864;23.360;2022-12-18T00:19:33;2.33;;;2.13;;
29168;SDS011;16219;42.864;23.360;2022-12-18T00:22:01;3.17;;;1.60;;
29168;SDS011;16219;42.864;23.360;2022-12-18T00:24:28;1.85;;;1.73;;
29168;SDS011;16219;42.864;23.360;2022-12-18T00:26:55;1.20;;;1.10;;
29168;SDS011;16219;42.864;23.360;2022-12-18T00:29:22;2.55;;;1.55;;
29168;SDS011;16219;42.864;23.360;2022-12-18T00:31:49;2.25;;;1.45;;
29168;SDS011;16219;42.864;23.360;2022-12-18T00:34:18;1.50;;;1.40;;
29168;SDS011;16219;42.864;23.360;2022-12-18T00:36:46;1.70;;;1.60;;
29168;SDS011;16219;42.864;23.360;2022-12-18T00:39:14;3.13;;;2.55;;
29168;SDS011;16219;42.864;23.360;2022-12-18T00:41:43;3.05;;;2.15;;
29168;SDS011;16219;42.864;23.360;2022-12-18T00:44:28;4.20;;;1.67;;
29168;SDS011;16219;42.864;23.360;2022-12-18T00:46:55;3.17;;;2.67;;
29168;SDS011;16219;42.864;23.360;2022-12-18T00:49:24;12.75;;;2.55;;
29168;SDS011;16219;42.864;23.360;2022-12-18T00:51:52;2.55;;;1.73;;
29168;SDS011;16219;42.864;23.360;2022-12-18T00:54:19;3.42;;;2.47;;
29168;SDS011;16219;42.864;23.360;2022-12-18T00:56:46;2.80;;;2.53;;
29168;SDS011;16219;42.864;23.360;2022-12-18T00:59:13;2.40;;;1.80;;
29168;SDS011;16219;42.864;23.360;2022-12-18T01:01:41;7.50;;;3.08;;
29168;SDS011;16219;42.864;23.360;2022-12-18T01:04:08;7.97;;;2.47;;
29168;SDS011;16219;42.864;23.360;2022-12-18T01:06:37;3.08;;;2.78;;
29168;SDS011;16219;42.864;23.360;2022-12-18T01:09:04;5.82;;;2.83;;
29168;SDS011;16219;42.864;23.360;2022-12-18T01:11:35;3.72;;;2.25;;
29168;SDS011;16219;42.864;23.360;2022-12-18T01:14:03;2.75;;;2.55;;
29168;SDS011;16219;42.864;23.360;2022-12-18T01:16:31;4.25;;;2.83;;
29168;SDS011;16219;42.864;23.360;2022-12-18T01:18:58;2.20;;;2.03;;
29168;SDS011;16219;42.864;23.360;2022-12-18T01:21:26;2.95;;;2.72;;
29168;SDS011;16219;42.864;23.360;2022-12-18T01:23:55;3.72;;;3.10;;
29168;SDS011;16219;42.864;23.360;2022-12-18T01:26:23;8.95;;;2.05;;
29168;SDS011;16219;42.864;23.360;2022-12-18T01:28:53;5.20;;;2.97;;
29168;SDS011;16219;42.864;23.360;2022-12-18T01:31:23;4.82;;;2.90;;
29168;SDS011;16219;42.864;23.360;2022-12-18T01:33:51;5.05;;;3.60;;
29168;SDS011;16219;42.864;23.360;2022-12-18T01:36:20;3.72;;;3.25;;
29168;SDS011;16219;42.864;23.360;2022-12-18T01:38:48;5.15;;;3.95;;
29168;SDS011;16219;42.864;23.360;2022-12-18T01:41:18;3.63;;;2.40;;
29168;SDS011;16219;42.864;23.360;2022-12-18T01:43:48;7.32;;;4.18;;
29168;SDS011;16219;42.864;23.360;2022-12-18T01:46:18;4.30;;;2.38;;
29168;SDS011;16219;42.864;23.360;2022-12-18T01:48:50;3.25;;;2.88;;
29168;SDS011;16219;42.864;23.360;2022-12-18T01:51:20;6.43;;;3.95;;
29168;SDS011;16219;42.864;23.360;2022-12-18T01:53:47;2.80;;;2.60;;
29168;SDS011;16219;42.864;23.360;2022-12-18T01:56:17;2.67;;;2.33;;
29168;SDS011;16219;42.864;23.360;2022-12-18T01:58:52;7.22;;;3.38;;
29168;SDS011;16219;42.864;23.360;2022-12-18T02:01:23;7.03;;;4.07;;
29168;SDS011;16219;42.864;23.360;2022-12-18T02:03:52;3.10;;;2.75;;
29168;SDS011;16219;42.864;23.360;2022-12-18T02:06:21;2.88;;;2.67;;
29168;SDS011;16219;42.864;23.360;2022-12-18T02:09:02;3.10;;;2.47;;
29168;SDS011;16219;42.864;23.360;2022-12-18T02:11:39;3.13;;;2.83;;
29168;SDS011;16219;42.864;23.360;2022-12-18T02:14:16;2.83;;;2.55;;
29168;SDS011;16219;42.864;23.360;2022-12-18T02:16:55;2.08;;;1.88;;
29168;SDS011;16219;42.864;23.360;2022-12-18T02:19:38;7.05;;;2.70;;
29168;SDS011;16219;42.864;23.360;2022-12-18T02:22:24;3.05;;;2.28;;
29168;SDS011;16219;42.864;23.360;2022-12-18T02:25:03;7.60;;;3.55;;
29168;SDS011;16219;42.864;23.360;2022-12-18T02:27:49;3.80;;;2.47;;
29168;SDS011;16219;42.864;23.360;2022-12-18T02:30:19;2.80;;;2.58;;
29168;SDS011;16219;42.864;23.360;2022-12-18T02:32:48;2.78;;;2.58;;
29168;SDS011;16219;42.864;23.360;2022-12-18T02:35:19;4.40;;;3.22;;
29168;SDS011;16219;42.864;23.360;2022-12-18T02:37:53;2.50;;;2.30;;
29168;SDS011;16219;42.864;23.360;2022-12-18T02:40:22;3.67;;;2.25;;
29168;SDS011;16219;42.864;23.360;2022-12-18T02:42:54;2.70;;;2.08;;
29168;SDS011;16219;42.864;23.360;2022-12-18T02:45:23;1.67;;;1.58;;
29168;SDS011;16219;42.864;23.360;2022-12-18T02:47:51;1.90;;;1.80;;
29168;SDS011;16219;42.864;23.360;2022-12-18T02:50:19;4.00;;;1.92;;
29168;SDS011;16219;42.864;23.360;2022-12-18T02:52:59;1.60;;;1.25;;
29168;SDS011;16219;42.864;23.360;2022-12-18T02:55:37;5.35;;;2.47;;
29168;SDS011;16219;42.864;23.360;2022-12-18T02:58:19;3.35;;;1.77;;
29168;SDS011;16219;42.864;23.360;2022-12-18T03:00:58;2.13;;;1.98;;
29168;SDS011;16219;42.864;23.360;2022-12-18T03:03:31;2.13;;;1.92;;
29168;SDS011;16219;42.864;23.360;2022-12-18T03:06:04;2.65;;;2.22;;
29168;SDS011;16219;42.864;23.360;2022-12-18T03:08:36;2.53;;;2.33;;
29168;SDS011;16219;42.864;23.360;2022-12-18T03:11:06;3.83;;;2.25;;
29168;SDS011;16219;42.864;23.360;2022-12-18T03:13:39;3.25;;;2.20;;
29168;SDS011;16219;42.864;23.360;2022-12-18T03:16:17;2.92;;;2.38;;
29168;SDS011;16219;42.864;23.360;2022-12-18T03:18:50;2.75;;;2.20;;
29168;SDS011;16219;42.864;23.360;2022-12-18T03:21:26;4.72;;;2.95;;
29168;SDS011;16219;42.864;23.360;2022-12-18T03:23:57;2.00;;;1.73;;
29168;SDS011;16219;42.864;23.360;2022-12-18T03:26:26;3.97;;;2.58;;
29168;SDS011;16219;42.864;23.360;2022-12-18T03:29:02;2.85;;;2.65;;
29168;SDS011;16219;42.864;23.360;2022-12-18T03:31:35;3.60;;;2.00;;
29168;SDS011;16219;42.864;23.360;2022-12-18T03:34:09;3.45;;;3.13;;
29168;SDS011;16219;42.864;23.360;2022-12-18T03:36:44;2.67;;;2.45;;
29168;SDS011;16219;42.864;23.360;2022-12-18T03:39:13;3.20;;;2.55;;
29168;SDS011;16219;42.864;23.360;2022-12-18T03:41:47;9.23;;;2.60;;
29168;SDS011;16219;42.864;23.360;2022-12-18T03:44:27;4.57;;;3.15;;
29168;SDS011;16219;42.864;23.360;2022-12-18T03:46:59;2.70;;;2.45;;
29168;SDS011;16219;42.864;23.360;2022-12-18T03:49:34;2.05;;;1.95;;
29168;SDS011;16219;42.864;23.360;2022-12-18T03:52:06;3.22;;;2.05;;
29168;SDS011;16219;42.864;23.360;2022-12-18T03:54:39;3.20;;;2.53;;
29168;SDS011;16219;42.864;23.360;2022-12-18T03:57:14;6.32;;;3.83;;
29168;SDS011;16219;42.864;23.360;2022-12-18T03:59:49;2.30;;;2.17;;
29168;SDS011;16219;42.864;23.360;2022-12-18T04:02:23;8.35;;;3.00;;
29168;SDS011;16219;42.864;23.360;2022-12-18T04:04:53;3.05;;;2.17;;
29168;SDS011;16219;42.864;23.360;2022-12-18T04:07:26;7.18;;;2.13;;
29168;SDS011;16219;42.864;23.360;2022-12-18T04:09:56;4.32;;;3.15;;
29168;SDS011;16219;42.864;23.360;2022-12-18T04:12:29;2.40;;;2.05;;
29168;SDS011;16219;42.864;23.360;2022-12-18T04:14:58;2.40;;;2.20;;
29168;SDS011;16219;42.864;23.360;2022-12-18T04:17:25;2.45;;;2.20;;
29168;SDS011;16219;42.864;23.360;2022-12-18T04:19:52;2.47;;;2.28;;
29168;SDS011;16219;42.864;23.360;2022-12-18T04:22:19;1.92;;;1.73;;
29168;SDS011;16219;42.864;23.360;2022-12-18T04:24:52;3.10;;;2.38;;
29168;SDS011;16219;42.864;23.360;2022-12-18T04:27:27;6.68;;;3.08;;
29168;SDS011;16219;42.864;23.360;2022-12-18T04:29:59;3.13;;;1.92;;
29168;SDS011;16219;42.864;23.360;2022-12-18T04:32:26;1.83;;;1.73;;
29168;SDS011;16219;42.864;23.360;2022-12-18T04:34:53;6.43;;;2.45;;
29168;SDS011;16219;42.864;23.360;2022-12-18T04:37:21;2.67;;;2.40;;
29168;SDS011;16219;42.864;23.360;2022-12-18T04:39:49;4.18;;;2.90;;
29168;SDS011;16219;42.864;23.360;2022-12-18T04:42:24;4.95;;;3.08;;
29168;SDS011;16219;42.864;23.360;2022-12-18T04:44:51;11.10;;;3.47;;
29168;SDS011;16219;42.864;23.360;2022-12-18T04:47:19;2.95;;;2.67;;
29168;SDS011;16219;42.864;23.360;2022-12-18T04:49:46;1.80;;;1.70;;
29168;SDS011;16219;42.864;23.360;2022-12-18T04:52:13;2.85;;;2.65;;
29168;SDS011;16219;42.864;23.360;2022-12-18T04:54:40;2.42;;;2.22;;
29168;SDS011;16219;42.864;23.360;2022-12-18T04:57:07;4.45;;;3.42;;
29168;SDS011;16219;42.864;23.360;2022-12-18T04:59:35;4.22;;;3.35;;
29168;SDS011;16219;42.864;23.360;2022-12-18T05:02:02;7.20;;;2.72;;
29168;SDS011;16219;42.864;23.360;2022-12-18T05:04:30;2.17;;;2.08;;
29168;SDS011;16219;42.864;23.360;2022-12-18T05:06:57;3.20;;;2.90;;
29168;SDS011;16219;42.864;23.360;2022-12-18T05:09:25;2.97;;;2.55;;
29168;SDS011;16219;42.864;23.360;2022-12-18T05:11:53;6.13;;;2.33;;
29168;SDS011;16219;42.864;23.360;2022-12-18T05:14:20;4.18;;;3.20;;
29168;SDS011;16219;42.864;23.360;2022-12-18T05:16:48;2.47;;;2.28;;
29168;SDS011;16219;42.864;23.360;2022-12-18T05:19:15;1.35;;;1.25;;
29168;SDS011;16219;42.864;23.360;2022-12-18T05:21:43;3.42;;;3.03;;
29168;SDS011;16219;42.864;23.360;2022-12-18T05:24:10;2.13;;;2.03;;
29168;SDS011;16219;42.864;23.360;2022-12-18T05:26:38;2.42;;;2.22;;
29168;SDS011;16219;42.864;23.360;2022-12-18T05:29:05;2.53;;;2.10;;
29168;SDS011;16219;42.864;23.360;2022-12-18T05:31:32;2.75;;;2.33;;
29168;SDS011;16219;42.864;23.360;2022-12-18T05:33:59;3.97;;;2.72;;
29168;SDS011;16219;42.864;23.360;2022-12-18T05:36:26;3.35;;;2.75;;
29168;SDS011;16219;42.864;23.360;2022-12-18T05:38:55;6.25;;;2.90;;
29168;SDS011;16219;42.864;23.360;2022-12-18T05:41:22;1.90;;;1.77;;
29168;SDS011;16219;42.864;23.360;2022-12-18T05:43:49;3.90;;;2.65;;
29168;SDS011;16219;42.864;23.360;2022-12-18T05:46:16;4.45;;;2.40;;
29168;SDS011;16219;42.864;23.360;2022-12-18T05:48:44;2.35;;;2.15;;
29168;SDS011;16219;42.864;23.360;2022-12-18T05:51:13;2.90;;;2.10;;
29168;SDS011;16219;42.864;23.360;2022-12-18T05:53:41;7.32;;;3.08;;
29168;SDS011;16219;42.864;23.360;2022-12-18T05:56:11;4.82;;;2.60;;
29168;SDS011;16219;42.864;23.360;2022-12-18T05:58:40;4.45;;;2.50;;
29168;SDS011;16219;42.864;23.360;2022-12-18T06:01:08;2.28;;;2.08;;
29168;SDS011;16219;42.864;23.360;2022-12-18T06:03:36;4.47;;;3.47;;
29168;SDS011;16219;42.864;23.360;2022-12-18T06:06:11;3.10;;;2.80;;
29168;SDS011;16219;42.864;23.360;2022-12-18T06:08:40;3.53;;;2.03;;
29168;SDS011;16219;42.864;23.360;2022-12-18T06:11:07;7.97;;;2.70;;
29168;SDS011;16219;42.864;23.360;2022-12-18T06:13:35;2.90;;;2.40;;
29168;SDS011;16219;42.864;23.360;2022-12-18T06:16:03;3.40;;;3.08;;
29168;SDS011;16219;42.864;23.360;2022-12-18T06:18:31;6.13;;;5.60;;
29168;SDS011;16219;42.864;23.360;2022-12-18T06:20:59;3.15;;;2.85;;
29168;SDS011;16219;42.864;23.360;2022-12-18T06:23:27;12.43;;;4.93;;
29168;SDS011;16219;42.864;23.360;2022-12-18T06:25:54;9.85;;;5.72;;
29168;SDS011;16219;42.864;23.360;2022-12-18T06:28:21;9.35;;;4.60;;
29168;SDS011;16219;42.864;23.360;2022-12-18T06:30:50;4.28;;;3.33;;
29168;SDS011;16219;42.864;23.360;2022-12-18T06:33:18;8.13;;;3.20;;
29168;SDS011;16219;42.864;23.360;2022-12-18T06:35:45;5.80;;;4.18;;
29168;SDS011;16219;42.864;23.360;2022-12-18T06:38:12;5.95;;;3.50;;
29168;SDS011;16219;42.864;23.360;2022-12-18T06:40:40;7.85;;;5.05;;
29168;SDS011;16219;42.864;23.360;2022-12-18T06:43:08;11.57;;;5.57;;
29168;SDS011;16219;42.864;23.360;2022-12-18T06:45:35;4.20;;;3.80;;
29168;SDS011;16219;42.864;23.360;2022-12-18T06:48:04;4.82;;;4.00;;
29168;SDS011;16219;42.864;23.360;2022-12-18T06:50:31;3.78;;;2.97;;
29168;SDS011;16219;42.864;23.360;2022-12-18T06:52:59;15.77;;;5.15;;
29168;SDS011;16219;42.864;23.360;2022-12-18T06:55:26;5.10;;;3.65;;
29168;SDS011;16219;42.864;23.360;2022-12-18T06:57:53;5.43;;;4.63;;
29168;SDS011;16219;42.864;23.360;2022-12-18T07:00:20;15.98;;;5.15;;
29168;SDS011;16219;42.864;23.360;2022-12-18T07:02:48;10.70;;;4.53;;
29168;SDS011;16219;42.864;23.360;2022-12-18T07:05:16;4.05;;;3.67;;
29168;SDS011;16219;42.864;23.360;2022-12-18T07:07:43;4.90;;;4.40;;
29168;SDS011;16219;42.864;23.360;2022-12-18T07:10:10;5.15;;;4.57;;
29168;SDS011;16219;42.864;23.360;2022-12-18T07:12:37;3.35;;;3.05;;
29168;SDS011;16219;42.864;23.360;2022-12-18T07:15:05;6.00;;;4.82;;
29168;SDS011;16219;42.864;23.360;2022-12-18T07:17:33;5.32;;;4.30;;
29168;SDS011;16219;42.864;23.360;2022-12-18T07:20:00;5.90;;;4.10;;
29168;SDS011;16219;42.864;23.360;2022-12-18T07:22:30;12.45;;;4.75;;
29168;SDS011;16219;42.864;23.360;2022-12-18T07:24:57;7.13;;;3.67;;
29168;SDS011;16219;42.864;23.360;2022-12-18T07:27:24;4.82;;;3.92;;
29168;SDS011;16219;42.864;23.360;2022-12-18T07:29:51;5.78;;;4.00;;
29168;SDS011;16219;42.864;23.360;2022-12-18T07:32:18;5.30;;;4.80;;
29168;SDS011;16219;42.864;23.360;2022-12-18T07:34:45;8.68;;;4.72;;
29168;SDS011;16219;42.864;23.360;2022-12-18T07:37:12;7.40;;;5.38;;
29168;SDS011;16219;42.864;23.360;2022-12-18T07:39:41;6.00;;;5.13;;
29168;SDS011;16219;42.864;23.360;2022-12-18T07:42:08;6.90;;;4.53;;
29168;SDS011;16219;42.864;23.360;2022-12-18T07:44:53;9.93;;;5.25;;
29168;SDS011;16219;42.864;23.360;2022-12-18T07:47:20;5.05;;;4.28;;
29168;SDS011;16219;42.864;23.360;2022-12-18T07:49:47;6.88;;;5.70;;
29168;SDS011;16219;42.864;23.360;2022-12-18T07:52:14;5.38;;;4.57;;
29168;SDS011;16219;42.864;23.360;2022-12-18T07:54:43;8.88;;;5.07;;
29168;SDS011;16219;42.864;23.360;2022-12-18T07:57:10;8.77;;;4.50;;
29168;SDS011;16219;42.864;23.360;2022-12-18T07:59:40;9.57;;;4.85;;
29168;SDS011;16219;42.864;23.360;2022-12-18T08:02:07;16.42;;;5.57;;
29168;SDS011;16219;42.864;23.360;2022-12-18T08:04:34;8.00;;;4.93;;
29168;SDS011;16219;42.864;23.360;2022-12-18T08:07:01;11.55;;;4.65;;
29168;SDS011;16219;42.864;23.360;2022-12-18T08:09:29;8.20;;;4.07;;
29168;SDS011;16219;42.864;23.360;2022-12-18T08:11:58;6.65;;;4.80;;
29168;SDS011;16219;42.864;23.360;2022-12-18T08:14:26;12.70;;;5.38;;
29168;SDS011;16219;42.864;23.360;2022-12-18T08:16:53;7.88;;;5.28;;
29168;SDS011;16219;42.864;23.360;2022-12-18T08:19:20;5.20;;;4.07;;
29168;SDS011;16219;42.864;23.360;2022-12-18T08:21:47;5.80;;;4.72;;
29168;SDS011;16219;42.864;23.360;2022-12-18T08:24:14;7.20;;;4.72;;
29168;SDS011;16219;42.864;23.360;2022-12-18T08:26:42;4.82;;;4.38;;
29168;SDS011;16219;42.864;23.360;2022-12-18T08:29:11;6.85;;;4.40;;
29168;SDS011;16219;42.864;23.360;2022-12-18T08:31:38;6.75;;;5.50;;
29168;SDS011;16219;42.864;23.360;2022-12-18T08:34:05;7.78;;;4.80;;
29168;SDS011;16219;42.864;23.360;2022-12-18T08:36:32;12.95;;;5.20;;
29168;SDS011;16219;42.864;23.360;2022-12-18T08:38:59;11.10;;;5.63;;
29168;SDS011;16219;42.864;23.360;2022-12-18T08:41:26;12.75;;;5.43;;
29168;SDS011;16219;42.864;23.360;2022-12-18T08:43:53;7.30;;;5.03;;
29168;SDS011;16219;42.864;23.360;2022-12-18T08:46:54;9.15;;;5.35;;
29168;SDS011;16219;42.864;23.360;2022-12-18T08:49:22;7.70;;;5.50;;
29168;SDS011;16219;42.864;23.360;2022-12-18T08:51:53;4.30;;;3.55;;
29168;SDS011;16219;42.864;23.360;2022-12-18T08:54:22;15.38;;;5.78;;
29168;SDS011;16219;42.864;23.360;2022-12-18T08:56:50;9.38;;;6.28;;
29168;SDS011;16219;42.864;23.360;2022-12-18T08:59:17;11.25;;;5.40;;
29168;SDS011;16219;42.864;23.360;2022-12-18T09:01:49;6.10;;;4.88;;
29168;SDS011;16219;42.864;23.360;2022-12-18T09:04:18;7.93;;;5.43;;
29168;SDS011;16219;42.864;23.360;2022-12-18T09:06:45;8.10;;;5.57;;
29168;SDS011;16219;42.864;23.360;2022-12-18T09:09:12;15.35;;;7.78;;
29168;SDS011;16219;42.864;23.360;2022-12-18T09:11:40;12.00;;;5.97;;
29168;SDS011;16219;42.864;23.360;2022-12-18T09:14:08;6.80;;;5.95;;
29168;SDS011;16219;42.864;23.360;2022-12-18T09:16:36;6.85;;;5.30;;
29168;SDS011;16219;42.864;23.360;2022-12-18T09:19:03;7.82;;;5.43;;
29168;SDS011;16219;42.864;23.360;2022-12-18T09:21:35;7.35;;;5.57;;
29168;SDS011;16219;42.864;23.360;2022-12-18T09:24:03;5.28;;;4.75;;
29168;SDS011;16219;42.864;23.360;2022-12-18T09:26:30;7.35;;;6.18;;
29168;SDS011;16219;42.864;23.360;2022-12-18T09:28:59;7.13;;;5.63;;
29168;SDS011;16219;42.864;23.360;2022-12-18T09:31:27;6.32;;;5.72;;
29168;SDS011;16219;42.864;23.360;2022-12-18T09:33:54;6.82;;;4.78;;
29168;SDS011;16219;42.864;23.360;2022-12-18T09:36:21;12.60;;;4.78;;
29168;SDS011;16219;42.864;23.360;2022-12-18T09:38:50;8.30;;;5.28;;
29168;SDS011;16219;42.864;23.360;2022-12-18T09:41:23;6.93;;;5.93;;
29168;SDS011;16219;42.864;23.360;2022-12-18T09:44:05;5.72;;;4.45;;
29168;SDS011;16219;42.864;23.360;2022-12-18T09:46:45;7.22;;;5.60;;
29168;SDS011;16219;42.864;23.360;2022-12-18T09:49:16;12.55;;;5.20;;
29168;SDS011;16219;42.864;23.360;2022-12-18T09:51:47;6.72;;;4.95;;
29168;SDS011;16219;42.864;23.360;2022-12-18T09:54:21;5.03;;;4.40;;
29168;SDS011;16219;42.864;23.360;2022-12-18T09:56:52;9.03;;;4.73;;
29168;SDS011;16219;42.864;23.360;2022-12-18T09:59:21;7.95;;;5.50;;
29168;SDS011;16219;42.864;23.360;2022-12-18T10:01:51;7.60;;;5.38;;
29168;SDS011;16219;42.864;23.360;2022-12-18T10:04:18;8.45;;;5.50;;
29168;SDS011;16219;42.864;23.360;2022-12-18T10:06:46;8.52;;;6.05;;
29168;SDS011;16219;42.864;23.360;2022-12-18T10:09:25;11.98;;;6.18;;
29168;SDS011;16219;42.864;23.360;2022-12-18T10:12:00;11.52;;;6.80;;
29168;SDS011;16219;42.864;23.360;2022-12-18T10:14:34;6.90;;;4.85;;
29168;SDS011;16219;42.864;23.360;2022-12-18T10:17:13;10.43;;;6.65;;
29168;SDS011;16219;42.864;23.360;2022-12-18T10:19:49;9.45;;;6.47;;
29168;SDS011;16219;42.864;23.360;2022-12-18T10:22:27;11.13;;;6.13;;
29168;SDS011;16219;42.864;23.360;2022-12-18T10:25:05;12.30;;;5.72;;
29168;SDS011;16219;42.864;23.360;2022-12-18T10:27:41;10.30;;;7.07;;
29168;SDS011;16219;42.864;23.360;2022-12-18T10:30:12;11.38;;;4.88;;
29168;SDS011;16219;42.864;23.360;2022-12-18T10:32:41;12.23;;;5.85;;
29168;SDS011;16219;42.864;23.360;2022-12-18T10:35:11;17.75;;;6.53;;
29168;SDS011;16219;42.864;23.360;2022-12-18T10:38:00;14.93;;;7.18;;
29168;SDS011;16219;42.864;23.360;2022-12-18T10:40:30;6.00;;;5.03;;
29168;SDS011;16219;42.864;23.360;2022-12-18T10:43:04;10.02;;;5.72;;
29168;SDS011;16219;42.864;23.360;2022-12-18T10:45:37;11.85;;;6.05;;
29168;SDS011;16219;42.864;23.360;2022-12-18T10:48:05;5.78;;;5.20;;
29168;SDS011;16219;42.864;23.360;2022-12-18T10:50:46;12.10;;;4.65;;
29168;SDS011;16219;42.864;23.360;2022-12-18T10:53:18;14.10;;;6.90;;
29168;SDS011;16219;42.864;23.360;2022-12-18T10:55:49;11.43;;;6.00;;
29168;SDS011;16219;42.864;23.360;2022-12-18T10:58:21;11.88;;;6.47;;
29168;SDS011;16219;42.864;23.360;2022-12-18T11:01:05;11.40;;;6.10;;
29168;SDS011;16219;42.864;23.360;2022-12-18T11:03:37;13.20;;;7.18;;
29168;SDS011;16219;42.864;23.360;2022-12-18T11:06:08;15.00;;;7.10;;
29168;SDS011;16219;42.864;23.360;2022-12-18T11:08:37;11.38;;;5.60;;
29168;SDS011;16219;42.864;23.360;2022-12-18T11:11:15;9.00;;;6.20;;
29168;SDS011;16219;42.864;23.360;2022-12-18T11:13:56;10.38;;;7.05;;
29168;SDS011;16219;42.864;23.360;2022-12-18T11:16:28;5.38;;;4.75;;
29168;SDS011;16219;42.864;23.360;2022-12-18T11:19:07;7.03;;;5.75;;
29168;SDS011;16219;42.864;23.360;2022-12-18T11:21:44;15.40;;;6.75;;
29168;SDS011;16219;42.864;23.360;2022-12-18T11:24:15;10.75;;;7.35;;
29168;SDS011;16219;42.864;23.360;2022-12-18T11:26:51;6.00;;;4.93;;
29168;SDS011;16219;42.864;23.360;2022-12-18T11:29:22;6.50;;;5.15;;
29168;SDS011;16219;42.864;23.360;2022-12-18T11:31:59;13.98;;;6.93;;
29168;SDS011;16219;42.864;23.360;2022-12-18T11:34:48;15.57;;;5.40;;
29168;SDS011;16219;42.864;23.360;2022-12-18T11:37:19;8.32;;;5.32;;
29168;SDS011;16219;42.864;23.360;2022-12-18T11:39:49;11.40;;;5.75;;
29168;SDS011;16219;42.864;23.360;2022-12-18T11:42:24;14.27;;;6.90;;
29168;SDS011;16219;42.864;23.360;2022-12-18T11:44:59;9.20;;;6.07;;
29168;SDS011;16219;42.864;23.360;2022-12-18T11:47:34;5.73;;;4.90;;
29168;SDS011;16219;42.864;23.360;2022-12-18T11:50:10;19.52;;;6.60;;
29168;SDS011;16219;42.864;23.360;2022-12-18T11:52:41;9.17;;;5.63;;
29168;SDS011;16219;42.864;23.360;2022-12-18T11:55:10;6.05;;;5.18;;
29168;SDS011;16219;42.864;23.360;2022-12-18T11:57:42;13.00;;;5.75;;
29168;SDS011;16219;42.864;23.360;2022-12-18T12:00:16;10.75;;;6.22;;
29168;SDS011;16219;42.864;23.360;2022-12-18T12:02:58;6.05;;;4.65;;
29168;SDS011;16219;42.864;23.360;2022-12-18T12:05:41;8.85;;;5.50;;
29168;SDS011;16219;42.864;23.360;2022-12-18T12:08:18;10.75;;;5.82;;
29168;SDS011;16219;42.864;23.360;2022-12-18T12:10:55;9.27;;;6.47;;
29168;SDS011;16219;42.864;23.360;2022-12-18T12:13:34;8.07;;;6.10;;
29168;SDS011;16219;42.864;23.360;2022-12-18T12:16:10;10.05;;;5.63;;
29168;SDS011;16219;42.864;23.360;2022-12-18T12:18:48;10.75;;;6.03;;
29168;SDS011;16219;42.864;23.360;2022-12-18T12:21:28;10.77;;;4.43;;
29168;SDS011;16219;42.864;23.360;2022-12-18T12:26:33;5.30;;;4.80;;
29168;SDS011;16219;42.864;23.360;2022-12-18T12:29:26;13.57;;;4.78;;
29168;SDS011;16219;42.864;23.360;2022-12-18T12:32:06;5.60;;;4.18;;
29168;SDS011;16219;42.864;23.360;2022-12-18T12:34:45;6.13;;;4.70;;
29168;SDS011;16219;42.864;23.360;2022-12-18T12:37:23;12.63;;;6.63;;
29168;SDS011;16219;42.864;23.360;2022-12-18T12:40:00;8.50;;;5.72;;
29168;SDS011;16219;42.864;23.360;2022-12-18T12:42:30;10.88;;;5.15;;
29168;SDS011;16219;42.864;23.360;2022-12-18T12:45:34;12.27;;;7.35;;
29168;SDS011;16219;42.864;23.360;2022-12-18T12:48:10;4.90;;;4.45;;
29168;SDS011;16219;42.864;23.360;2022-12-18T12:50:45;5.78;;;4.13;;
29168;SDS011;16219;42.864;23.360;2022-12-18T12:53:17;8.70;;;4.53;;
29168;SDS011;16219;42.864;23.360;2022-12-18T12:55:53;5.18;;;4.68;;
29168;SDS011;16219;42.864;23.360;2022-12-18T12:58:24;7.22;;;6.07;;
29168;SDS011;16219;42.864;23.360;2022-12-18T13:01:02;6.85;;;5.32;;
29168;SDS011;16219;42.864;23.360;2022-12-18T13:03:42;7.95;;;5.72;;
29168;SDS011;16219;42.864;23.360;2022-12-18T13:06:16;6.50;;;5.72;;
29168;SDS011;16219;42.864;23.360;2022-12-18T13:08:53;12.52;;;6.57;;
29168;SDS011;16219;42.864;23.360;2022-12-18T13:11:32;6.80;;;4.75;;
29168;SDS011;16219;42.864;23.360;2022-12-18T13:14:22;7.15;;;4.68;;
29168;SDS011;16219;42.864;23.360;2022-12-18T13:16:52;5.72;;;5.05;;
29168;SDS011;16219;42.864;23.360;2022-12-18T13:19:43;23.60;;;8.55;;
29168;SDS011;16219;42.864;23.360;2022-12-18T13:22:21;21.17;;;9.80;;
29168;SDS011;16219;42.864;23.360;2022-12-18T13:24:50;12.80;;;6.60;;
29168;SDS011;16219;42.864;23.360;2022-12-18T13:36:10;9.35;;;5.25;;
29168;SDS011;16219;42.864;23.360;2022-12-18T13:38:41;7.32;;;4.63;;
29168;SDS011;16219;42.864;23.360;2022-12-18T13:41:23;9.73;;;5.07;;
29168;SDS011;16219;42.864;23.360;2022-12-18T13:43:53;7.38;;;4.95;;
29168;SDS011;16219;42.864;23.360;2022-12-18T13:46:24;6.03;;;4.05;;
29168;SDS011;16219;42.864;23.360;2022-12-18T13:48:57;7.78;;;5.55;;
29168;SDS011;16219;42.864;23.360;2022-12-18T13:51:27;9.88;;;4.95;;
29168;SDS011;16219;42.864;23.360;2022-12-18T13:53:58;8.13;;;4.47;;
29168;SDS011;16219;42.864;23.360;2022-12-18T13:56:28;7.32;;;4.88;;
29168;SDS011;16219;42.864;23.360;2022-12-18T13:59:13;8.85;;;5.57;;
29168;SDS011;16219;42.864;23.360;2022-12-18T14:01:46;7.30;;;4.90;;
29168;SDS011;16219;42.864;23.360;2022-12-18T14:04:19;7.43;;;4.47;;
29168;SDS011;16219;42.864;23.360;2022-12-18T14:06:52;7.55;;;4.53;;
29168;SDS011;16219;42.864;23.360;2022-12-18T14:09:23;11.40;;;5.22;;
29168;SDS011;16219;42.864;23.360;2022-12-18T14:11:53;10.88;;;5.30;;
29168;SDS011;16219;42.864;23.360;2022-12-18T14:14:45;16.48;;;5.82;;
29168;SDS011;16219;42.864;23.360;2022-12-18T14:17:14;5.10;;;3.75;;
29168;SDS011;16219;42.864;23.360;2022-12-18T14:19:45;7.97;;;5.28;;
29168;SDS011;16219;42.864;23.360;2022-12-18T14:22:15;10.07;;;5.47;;
29168;SDS011;16219;42.864;23.360;2022-12-18T14:24:44;7.18;;;5.10;;
29168;SDS011;16219;42.864;23.360;2022-12-18T14:27:13;11.73;;;6.15;;
29168;SDS011;16219;42.864;23.360;2022-12-18T14:29:47;9.88;;;5.57;;
29168;SDS011;16219;42.864;23.360;2022-12-18T14:32:16;16.00;;;7.32;;
29168;SDS011;16219;42.864;23.360;2022-12-18T14:34:45;20.23;;;4.63;;
29168;SDS011;16219;42.864;23.360;2022-12-18T14:37:13;7.32;;;5.78;;
29168;SDS011;16219;42.864;23.360;2022-12-18T14:39:51;10.45;;;4.78;;
29168;SDS011;16219;42.864;23.360;2022-12-18T14:42:19;8.18;;;5.50;;
29168;SDS011;16219;42.864;23.360;2022-12-18T14:44:46;9.57;;;4.85;;
29168;SDS011;16219;42.864;23.360;2022-12-18T14:47:14;6.43;;;5.05;;
29168;SDS011;16219;42.864;23.360;2022-12-18T14:49:42;6.35;;;4.65;;
29168;SDS011;16219;42.864;23.360;2022-12-18T14:52:16;8.07;;;5.97;;
29168;SDS011;16219;42.864;23.360;2022-12-18T14:54:49;6.75;;;4.93;;
29168;SDS011;16219;42.864;23.360;2022-12-18T14:57:18;8.15;;;4.95;;
29168;SDS011;16219;42.864;23.360;2022-12-18T14:59:49;11.25;;;4.97;;
29168;SDS011;16219;42.864;23.360;2022-12-18T15:02:18;6.50;;;5.03;;
29168;SDS011;16219;42.864;23.360;2022-12-18T15:04:53;8.52;;;4.47;;
29168;SDS011;16219;42.864;23.360;2022-12-18T15:07:38;10.95;;;4.43;;